Time;durP1;ratioP1;P1;durP2;ratioP2;P2;SDS_P1;SDS_P2;PMS_P1;PMS_P2;Temp;Humidity;BMP_temperature;BMP_pressure;BME280_temperature;BME280_humidity;BME280_pressure;Samples;Min_cycle;Max_cycle;Signal;HPM_P1;HPM_P2
2022/09/26 00:00:31;;;;;;;8.30;4.50;;;;;;;20.91;37.21;100904.19;5087121;28;20394;-69
2022/09/26 00:02:56;;;;;;;5.05;4.25;;;;;;;20.94;37.26;100908.28;5086615;28;20390;-68
2022/09/26 00:05:22;;;;;;;9.13;4.57;;;;;;;20.89;37.21;100900.13;5086986;28;20375;-69
2022/09/26 00:08:41;;;;;;;7.28;4.03;;;;;;;20.88;37.26;100907.34;5090912;27;2027549;-70
2022/09/26 00:11:08;;;;;;;6.93;3.90;;;;;;;20.87;37.26;100902.19;5148694;27;20476;-69
2022/09/26 00:14:18;;;;;;;5.50;3.70;;;;;;;20.86;37.43;100901.38;5098223;27;20414;-69
2022/09/26 00:16:45;;;;;;;5.60;3.78;;;;;;;20.83;37.42;100895.66;5086790;28;20394;-69
2022/09/26 00:19:11;;;;;;;5.40;3.80;;;;;;;20.79;37.38;100898.78;5087035;28;20382;-69
2022/09/26 00:21:37;;;;;;;6.37;3.97;;;;;;;20.80;37.40;100891.56;5073039;28;20470;-69
2022/09/26 00:24:34;;;;;;;8.65;3.92;;;;;;;20.76;37.44;100888.50;5096372;27;20463;-69
2022/09/26 00:26:59;;;;;;;7.50;3.67;;;;;;;20.77;37.62;100895.53;5087069;28;20764;-69
2022/09/26 00:29:25;;;;;;;8.48;3.90;;;;;;;20.73;37.58;100893.53;5086992;28;20989;-69
2022/09/26 00:31:51;;;;;;;5.77;3.80;;;;;;;20.72;37.60;100906.16;5085655;28;20465;-69
2022/09/26 00:34:18;;;;;;;9.40;4.15;;;;;;;20.71;37.61;100909.94;5072766;28;20382;-69
2022/09/26 00:36:44;;;;;;;7.57;3.60;;;;;;;20.69;37.83;100903.97;5086879;28;20382;-69
2022/09/26 00:39:12;;;;;;;6.07;4.10;;;;;;;20.70;38.03;100907.47;5086761;28;20439;-69
2022/09/26 00:41:37;;;;;;;5.85;3.70;;;;;;;20.70;38.07;100913.66;5086719;28;20366;-69
2022/09/26 00:44:43;;;;;;;6.13;3.90;;;;;;;20.68;37.98;100913.09;5086556;28;20414;-69
2022/09/26 00:49:33;;;;;;;6.10;3.90;;;;;;;20.66;38.08;100912.50;5082120;27;20410;-69
2022/09/26 00:52:06;;;;;;;6.85;3.90;;;;;;;20.66;38.77;100912.50;5066748;28;20817;-69
2022/09/26 00:54:34;;;;;;;4.90;3.85;;;;;;;20.64;39.24;100913.81;5055912;28;20398;-70
2022/09/26 00:57:07;;;;;;;6.75;3.90;;;;;;;20.62;39.41;100903.25;5063481;28;20497;-70
2022/09/26 00:59:37;;;;;;;4.13;3.53;;;;;;;20.64;40.19;100905.72;5067006;28;20427;-70
2022/09/26 01:02:04;;;;;;;5.68;4.05;;;;;;;20.59;40.63;100900.97;5066375;28;20449;-69
2022/09/26 01:04:33;;;;;;;5.03;4.00;;;;;;;20.58;41.13;100894.78;5066470;28;20449;-69
2022/09/26 01:07:03;;;;;;;6.55;4.10;;;;;;;20.54;40.54;100903.53;5066529;28;20426;-69
2022/09/26 01:09:31;;;;;;;5.38;3.95;;;;;;;20.53;41.43;100899.22;5066371;28;20407;-69
2022/09/26 01:12:00;;;;;;;6.93;4.03;;;;;;;20.50;42.39;100895.09;5066157;28;20388;-69
2022/09/26 01:14:26;;;;;;;5.68;3.90;;;;;;;20.47;42.80;100894.75;5066116;28;20380;-69
2022/09/26 01:16:51;;;;;;;5.97;4.07;;;;;;;20.43;42.92;100897.91;5066220;28;20395;-69
2022/09/26 01:19:48;;;;;;;7.40;4.27;;;;;;;20.43;44.01;100891.69;5066392;28;20380;-69
2022/09/26 01:22:32;;;;;;;5.60;4.07;;;;;;;20.46;44.39;100901.22;5066151;28;20384;-69
2022/09/26 01:25:28;;;;;;;5.55;4.10;;;;;;;20.36;44.35;100891.78;5060034;28;20386;-70
2022/09/26 01:30:26;;;;;;;9.20;4.60;;;;;;;20.33;44.21;100894.97;5091378;27;20410;-70
2022/09/26 01:33:16;;;;;;;5.50;4.00;;;;;;;20.31;44.54;100882.78;5066939;28;20920;-70
2022/09/26 01:37:47;;;;;;;5.95;3.92;;;;;;;20.27;44.87;100890.47;5088526;27;20465;-70
2022/09/26 01:40:28;;;;;;;5.10;4.15;;;;;;;20.20;44.71;100889.75;5066299;28;20816;-69
2022/09/26 01:43:26;;;;;;;6.78;4.00;;;;;;;20.16;44.86;100878.63;5066814;28;20391;-69
2022/09/26 01:47:50;;;;;;;6.15;4.03;;;;;;;20.11;45.32;100883.06;5088064;27;20403;-69
2022/09/26 01:50:28;;;;;;;3.90;3.50;;;;;;;20.05;44.73;100876.75;5066365;28;20449;-69
2022/09/26 01:53:22;;;;;;;7.00;3.83;;;;;;;20.05;45.05;100874.03;5066501;28;20373;-69
2022/09/26 01:55:52;;;;;;;5.85;4.10;;;;;;;20.03;44.98;100870.78;5052470;28;20468;-69
2022/09/26 01:58:53;;;;;;;4.95;3.80;;;;;;;19.95;44.70;100852.25;5074420;27;20419;-69
2022/09/26 02:03:50;;;;;;;5.03;4.00;;;;;;;19.77;46.00;100858.50;5089548;27;20756;-69
2022/09/26 02:06:32;;;;;;;8.20;4.57;;;;;;;19.68;46.05;100857.97;5053859;28;20400;-69
2022/09/26 02:09:25;;;;;;;5.95;4.40;;;;;;;19.66;46.58;100851.97;5066291;28;20483;-69
2022/09/26 02:11:53;;;;;;;7.93;4.60;;;;;;;19.65;46.86;100850.34;5066508;28;20398;-70
2022/09/26 02:14:24;;;;;;;8.50;4.40;;;;;;;19.60;46.63;100842.94;5066637;28;20411;-70
2022/09/26 02:16:54;;;;;;;7.10;4.60;;;;;;;19.59;46.74;100844.03;5066758;28;20392;-70
2022/09/26 02:21:19;;;;;;;7.28;4.88;;;;;;;19.55;47.65;100833.94;5072815;27;20484;-70
2022/09/26 02:23:50;;;;;;;5.63;4.78;;;;;;;19.50;46.92;100840.00;5066840;28;20964;-71
2022/09/26 02:26:15;;;;;;;9.30;5.00;;;;;;;19.43;46.87;100828.50;5066578;28;20514;-70
2022/09/26 02:30:08;;;;;;;6.88;5.13;;;;;;;19.51;46.86;100827.38;5079015;27;20412;-70
2022/09/26 02:32:34;;;;;;;7.00;5.53;;;;;;;19.50;47.40;100826.56;5053892;28;20402;-71
2022/09/26 02:35:52;;;;;;;7.72;5.43;;;;;;;19.42;47.53;100826.84;5060554;28;20378;-71
2022/09/26 02:39:24;;;;;;;6.25;5.28;;;;;;;19.41;47.67;100833.25;5079146;27;20465;-71
2022/09/26 02:42:12;;;;;;;7.60;5.55;;;;;;;19.40;47.76;100827.06;5066535;28;20408;-71
2022/09/26 02:46:44;;;;;;;9.15;5.93;;;;;;;19.40;47.89;100827.06;5090074;27;20410;-71
2022/09/26 02:49:27;;;;;;;8.18;5.75;;;;;;;19.42;48.21;100829.53;5077189;28;20395;-71
2022/09/26 02:52:02;;;;;;;8.45;5.72;;;;;;;19.41;48.51;100831.41;5080553;28;20380;-70
2022/09/26 02:55:43;;;;;;;8.40;5.80;;;;;;;19.40;48.40;100835.13;5092017;27;20456;-70
2022/09/26 03:00:30;;;;;;;7.13;6.10;;;;;;;19.37;49.19;100819.44;5062773;28;20470;-69
2022/09/26 03:03:21;;;;;;;6.93;5.78;;;;;;;19.32;49.20;100821.19;5046728;28;20417;-70
2022/09/26 03:05:50;;;;;;;7.60;5.95;;;;;;;19.31;48.94;100827.63;5029272;28;20500;-70
2022/09/26 03:08:26;;;;;;;6.80;5.95;;;;;;;19.28;49.37;100813.59;5045756;28;20398;-70
2022/09/26 03:10:54;;;;;;;7.78;6.20;;;;;;;19.26;49.53;100814.84;5046836;28;20454;-69
2022/09/26 03:13:22;;;;;;;8.23;6.70;;;;;;;19.23;49.72;100805.38;5046735;28;20389;-69
2022/09/26 03:15:53;;;;;;;7.88;6.43;;;;;;;19.22;50.08;100801.03;5046699;28;20386;-69
2022/09/26 03:18:25;;;;;;;8.63;6.70;;;;;;;19.26;50.16;100804.91;5046201;28;20806;-69
2022/09/26 03:20:53;;;;;;;9.07;6.60;;;;;;;19.28;50.46;100797.47;5032354;28;20900;-69
2022/09/26 03:23:27;;;;;;;9.67;6.93;;;;;;;19.27;50.77;100786.94;5039423;28;20434;-70
2022/09/26 03:29:01;;;;;;;10.73;7.05;;;;;;;19.34;51.42;100784.13;5053569;28;20431;-71
2022/09/26 03:31:27;;;;;;;7.88;6.72;;;;;;;19.31;51.88;100780.06;5014622;28;20434;-70
2022/09/26 03:33:52;;;;;;;10.15;7.18;;;;;;;19.32;51.93;100783.56;5024974;28;20430;-70
2022/09/26 03:36:21;;;;;;;8.60;7.47;;;;;;;19.25;51.41;100780.97;5024570;28;20873;-70
2022/09/26 03:38:47;;;;;;;8.75;7.05;;;;;;;19.26;52.26;100779.91;5015503;28;20387;-70
2022/09/26 03:41:12;;;;;;;8.60;6.90;;;;;;;19.29;52.79;100774.91;5023615;28;20392;-70
2022/09/26 03:43:38;;;;;;;9.67;7.23;;;;;;;19.28;52.33;100764.38;5015295;28;20392;-69
2022/09/26 03:46:06;;;;;;;9.10;7.10;;;;;;;19.25;52.70;100759.47;5024475;28;20901;-70
2022/09/26 03:48:32;;;;;;;8.13;7.07;;;;;;;19.27;52.38;100763.56;5024672;28;20427;-70
2022/09/26 03:51:20;;;;;;;10.77;7.40;;;;;;;19.25;51.48;100764.84;5069444;28;20837;-70
2022/09/26 03:55:28;;;;;;;8.75;6.97;;;;;;;19.26;52.49;100763.78;5085741;27;20411;-70
2022/09/26 03:58:23;;;;;;;9.32;8.35;;;;;;;19.20;52.99;100762.81;5048650;28;20783;-69
2022/09/26 04:01:15;;;;;;;10.68;7.15;;;;;;;19.21;52.49;100767.16;5084356;27;20410;-70
2022/09/26 04:03:42;;;;;;;8.68;7.15;;;;;;;19.23;52.44;100775.81;5082231;28;20460;-70
2022/09/26 04:06:09;;;;;;;10.20;8.07;;;;;;;19.26;52.65;100766.47;5086996;28;20387;-70
2022/09/26 04:08:39;;;;;;;11.13;7.93;;;;;;;19.24;53.05;100764.00;5082429;28;20383;-70
2022/09/26 04:11:11;;;;;;;10.68;7.22;;;;;;;19.20;53.40;100764.69;5069113;28;20421;-71
2022/09/26 04:14:30;;;;;;;10.13;8.07;;;;;;;19.15;54.04;100764.56;5074775;27;20416;-70
2022/09/26 04:16:57;;;;;;;8.95;8.05;;;;;;;19.12;54.42;100759.63;5054194;28;20437;-70
2022/09/26 04:19:22;;;;;;;11.07;7.70;;;;;;;19.01;54.24;100763.88;5065222;28;20380;-70
2022/09/26 04:21:49;;;;;;;8.63;7.70;;;;;;;19.01;54.46;100756.63;5066475;28;20438;-70
2022/09/26 04:24:15;;;;;;;9.00;8.02;;;;;;;19.01;54.58;100759.31;5066314;28;20392;-70
2022/09/26 04:26:42;;;;;;;11.32;8.13;;;;;;;19.05;53.88;100757.84;5059986;28;20407;-70
2022/09/26 04:29:08;;;;;;;9.63;7.97;;;;;;;19.02;53.61;100760.97;5036456;28;20441;-70
2022/09/26 04:31:35;;;;;;;10.23;7.82;;;;;;;19.07;53.34;100760.31;5043132;28;20861;-69
2022/09/26 04:34:03;;;;;;;8.95;8.00;;;;;;;19.09;52.80;100760.91;5046121;28;20424;-70
2022/09/26 04:36:30;;;;;;;10.00;8.65;;;;;;;19.08;52.83;100772.69;5052018;28;20384;-69
2022/09/26 04:38:58;;;;;;;11.70;9.13;;;;;;;19.13;53.05;100774.69;5039918;28;20486;-70
2022/09/26 04:41:23;;;;;;;11.15;8.05;;;;;;;19.16;52.69;100779.59;5041678;28;20430;-70
2022/09/26 04:45:17;;;;;;;11.02;7.88;;;;;;;19.14;53.46;100785.22;5089767;27;20424;-70
2022/09/26 04:47:42;;;;;;;9.90;8.17;;;;;;;19.15;53.06;100784.16;5072235;28;20411;-69
2022/09/26 04:50:08;;;;;;;9.30;7.50;;;;;;;19.10;52.95;100787.53;5085908;28;20474;-70
2022/09/26 04:52:34;;;;;;;9.25;7.20;;;;;;;19.03;53.26;100781.44;5074505;28;20458;-70
2022/09/26 04:54:59;;;;;;;10.23;6.87;;;;;;;19.07;53.16;100787.19;5081638;28;20384;-70
2022/09/26 04:57:25;;;;;;;10.10;6.70;;;;;;;19.11;53.38;100782.97;5082659;28;20382;-71
2022/09/26 04:59:51;;;;;;;10.70;7.30;;;;;;;19.19;53.25;100792.59;5077317;28;20403;-70
2022/09/26 05:02:17;;;;;;;10.80;7.00;;;;;;;19.20;52.82;100791.56;5083022;28;20378;-70
2022/09/26 05:04:43;;;;;;;10.10;6.32;;;;;;;19.25;52.52;100792.53;5067978;28;20489;-70
2022/09/26 05:07:08;;;;;;;10.18;6.10;;;;;;;19.28;52.26;100793.94;5080427;28;20866;-68
2022/09/26 05:09:34;;;;;;;9.87;6.13;;;;;;;19.29;51.94;100788.34;5066704;28;20376;-70
2022/09/26 05:11:59;;;;;;;8.50;5.90;;;;;;;19.32;51.97;100788.94;5066476;28;20420;-71
2022/09/26 05:14:40;;;;;;;7.70;6.10;;;;;;;19.36;51.82;100784.75;5094191;27;20462;-70
2022/09/26 05:17:06;;;;;;;9.90;6.32;;;;;;;19.38;51.76;100785.34;5066285;28;20882;-70
2022/09/26 05:19:31;;;;;;;9.60;8.10;;;;;;;19.40;51.39;100788.63;5066266;28;20403;-70
2022/09/26 05:21:57;;;;;;;15.37;9.17;;;;;;;19.42;50.79;100792.72;5066253;28;20479;-70
2022/09/26 05:27:07;;;;;;;13.05;9.65;;;;;;;19.37;50.54;100792.56;5066102;28;20473;-69
2022/09/26 05:30:30;;;;;;;16.27;11.25;;;;;;;19.44;50.50;100801.38;5068998;28;20408;-70
2022/09/26 05:32:56;;;;;;;18.95;11.65;;;;;;;19.45;50.30;100799.53;5044435;28;20493;-69
2022/09/26 05:35:22;;;;;;;17.05;11.32;;;;;;;19.44;50.22;100790.63;5040705;28;20484;-70
2022/09/26 05:37:48;;;;;;;17.38;11.57;;;;;;;19.41;49.98;100784.88;5046660;28;20468;-70
2022/09/26 05:43:19;;;;;;;15.40;10.35;;;;;;;19.39;50.19;100781.59;5087898;27;20424;-70
2022/09/26 05:45:48;;;;;;;15.87;9.13;;;;;;;19.41;50.14;100774.97;5077799;28;20881;-69
2022/09/26 05:49:08;;;;;;;10.77;7.47;;;;;;;19.38;50.01;100764.66;5077029;27;20395;-69
2022/09/26 05:51:34;;;;;;;13.40;7.53;;;;;;;19.39;49.88;100766.31;5071431;28;20770;-70
2022/09/26 05:53:59;;;;;;;9.90;6.80;;;;;;;19.39;49.61;100763.63;5066809;28;20380;-70
2022/09/26 05:56:25;;;;;;;11.40;8.43;;;;;;;19.39;49.76;100758.25;5071546;28;20958;-70
2022/09/26 05:58:50;;;;;;;16.57;11.93;;;;;;;19.38;49.58;100758.47;5071763;28;20383;-70
2022/09/26 06:01:17;;;;;;;22.07;14.23;;;;;;;19.41;49.47;100755.31;5066522;28;20388;-70
2022/09/26 06:03:44;;;;;;;13.77;9.82;;;;;;;19.42;48.90;100756.97;5071982;28;20384;-70
2022/09/26 06:06:14;;;;;;;11.93;8.97;;;;;;;19.42;48.85;100763.16;5058521;28;20382;-71
2022/09/26 06:08:40;;;;;;;15.93;9.23;;;;;;;19.42;49.18;100759.66;5086739;28;20439;-70
2022/09/26 06:11:12;;;;;;;12.23;8.03;;;;;;;19.42;49.47;100765.84;5081703;28;20878;-70
2022/09/26 06:13:39;;;;;;;12.82;8.10;;;;;;;19.48;49.25;100773.00;5066363;28;20376;-70
2022/09/26 06:16:07;;;;;;;11.10;7.63;;;;;;;19.60;48.98;100767.66;5083873;28;20388;-70
2022/09/26 06:18:36;;;;;;;11.30;7.20;;;;;;;19.66;48.79;100763.22;5076216;28;20781;-70
2022/09/26 06:21:08;;;;;;;14.00;7.43;;;;;;;19.82;48.39;100757.22;5068576;28;20399;-70
2022/09/26 06:23:34;;;;;;;11.23;7.00;;;;;;;19.95;48.52;100750.00;5076731;28;20400;-70
2022/09/26 06:26:02;;;;;;;10.10;7.45;;;;;;;19.90;48.83;100747.19;5065867;28;20395;-70
2022/09/26 06:28:28;;;;;;;15.75;7.65;;;;;;;19.89;49.02;100743.69;5078311;28;20505;-70
2022/09/26 06:30:54;;;;;;;10.00;7.10;;;;;;;19.88;49.00;100746.59;5065948;28;20380;-69
2022/09/26 06:33:20;;;;;;;10.75;7.78;;;;;;;19.88;48.73;100738.53;5065772;28;20407;-70
2022/09/26 06:35:45;;;;;;;10.52;7.85;;;;;;;19.88;48.46;100736.69;5076813;28;20391;-69
2022/09/26 06:38:11;;;;;;;10.23;7.10;;;;;;;19.87;47.99;100732.34;5077543;28;20757;-70
2022/09/26 06:40:36;;;;;;;11.30;7.78;;;;;;;19.86;48.11;100722.63;5076802;28;20897;-69
2022/09/26 06:43:02;;;;;;;14.83;8.13;;;;;;;20.02;48.16;100719.28;5069832;28;20400;-69
2022/09/26 06:45:28;;;;;;;14.43;9.35;;;;;;;20.11;47.76;100727.78;5066552;28;20427;-69
2022/09/26 06:47:53;;;;;;;13.40;9.45;;;;;;;20.05;47.67;100734.94;5072085;28;20897;-69
2022/09/26 06:50:20;;;;;;;13.93;9.30;;;;;;;20.12;47.11;100734.81;5065491;28;20886;-71
2022/09/26 06:52:46;;;;;;;12.18;9.38;;;;;;;20.09;46.84;100729.09;5082901;28;20390;-70
2022/09/26 06:55:11;;;;;;;15.33;9.20;;;;;;;20.04;47.17;100733.31;5067387;28;20384;-71
2022/09/26 06:59:18;;;;;;;11.45;8.40;;;;;;;20.30;46.78;100741.16;5078486;27;20465;-71
2022/09/26 07:01:46;;;;;;;11.77;8.40;;;;;;;20.39;46.34;100751.34;5083912;28;20406;-70
2022/09/26 07:04:14;;;;;;;9.15;7.78;;;;;;;20.44;46.11;100739.88;5078891;28;20380;-70
2022/09/26 07:06:41;;;;;;;10.95;7.80;;;;;;;20.40;46.02;100739.53;5076810;28;20899;-70
2022/09/26 07:09:06;;;;;;;11.77;8.13;;;;;;;20.45;45.88;100741.50;5084867;28;20402;-70
2022/09/26 07:11:32;;;;;;;10.53;7.60;;;;;;;20.53;45.31;100730.38;5079884;28;20375;-70
2022/09/26 07:14:03;;;;;;;9.05;7.20;;;;;;;20.54;45.11;100723.13;5068541;28;20905;-70
2022/09/26 07:16:29;;;;;;;10.07;7.22;;;;;;;20.57;45.34;100720.75;5072832;28;20551;-69
2022/09/26 07:18:55;;;;;;;10.07;7.45;;;;;;;20.61;45.00;100721.97;5080165;28;20941;-70
2022/09/26 07:21:21;;;;;;;10.52;7.60;;;;;;;20.60;45.20;100714.09;5075110;28;20372;-69
2022/09/26 07:23:47;;;;;;;15.70;7.90;;;;;;;20.56;45.39;100715.59;5080375;28;20487;-69
2022/09/26 07:26:12;;;;;;;10.00;7.80;;;;;;;20.49;45.67;100709.53;5080022;28;20459;-69
2022/09/26 07:28:38;;;;;;;12.88;7.93;;;;;;;20.56;45.73;100723.69;5079593;28;20390;-68
2022/09/26 07:31:04;;;;;;;13.73;8.33;;;;;;;20.60;46.05;100728.38;5080638;28;20414;-68
2022/09/26 07:33:30;;;;;;;10.77;7.65;;;;;;;20.66;46.14;100732.03;5069692;28;20403;-68
2022/09/26 07:35:56;;;;;;;10.13;7.82;;;;;;;20.69;46.29;100734.25;5068050;28;20383;-68
2022/09/26 07:38:23;;;;;;;11.02;7.53;;;;;;;20.69;45.60;100738.81;5069416;28;20412;-68
2022/09/26 07:40:53;;;;;;;11.50;7.10;;;;;;;20.68;45.28;100727.22;5066924;28;20480;-68
2022/09/26 07:43:19;;;;;;;10.05;7.10;;;;;;;20.66;45.43;100737.41;5068117;28;20465;-69
2022/09/26 07:51:14;;;;;;;14.88;9.00;;;;;;;20.77;45.49;100738.47;5064758;28;20406;-69
2022/09/26 07:53:40;;;;;;;19.10;10.98;;;;;;;20.82;45.60;100746.66;5067373;28;20388;-69
2022/09/26 07:56:09;;;;;;;18.63;10.50;;;;;;;20.84;45.47;100749.91;5064614;28;20380;-67
2022/09/26 07:58:44;;;;;;;15.93;8.55;;;;;;;20.87;45.24;100738.69;5066845;28;20418;-68
2022/09/26 08:01:12;;;;;;;12.70;7.93;;;;;;;20.75;45.16;100733.31;5066290;28;20395;-68
2022/09/26 08:03:40;;;;;;;13.98;8.98;;;;;;;20.71;45.03;100736.72;5067303;28;20390;-68
2022/09/26 08:07:46;;;;;;;12.65;8.57;;;;;;;20.81;44.92;100747.69;5074116;27;20410;-69
2022/09/26 08:10:20;;;;;;;12.55;8.90;;;;;;;20.86;44.82;100736.22;5063518;28;20469;-68
2022/09/26 08:12:46;;;;;;;12.52;9.68;;;;;;;20.78;44.68;100735.53;5066539;28;20784;-69
2022/09/26 08:15:13;;;;;;;15.30;10.10;;;;;;;20.92;44.38;100749.56;5061423;28;20380;-69
2022/09/26 08:17:39;;;;;;;13.95;10.15;;;;;;;21.16;44.25;100747.63;5057464;28;20372;-68
2022/09/26 08:20:05;;;;;;;16.77;9.80;;;;;;;21.27;44.08;100731.66;5061656;28;20455;-68
2022/09/26 08:22:31;;;;;;;16.37;10.50;;;;;;;21.48;43.74;100731.00;5056351;28;20460;-68
2022/09/26 08:24:57;;;;;;;16.90;10.07;;;;;;;21.65;43.33;100722.91;5061588;28;20892;-69
2022/09/26 08:27:22;;;;;;;15.35;10.18;;;;;;;21.66;43.08;100712.94;5066349;28;20516;-69
2022/09/26 08:29:49;;;;;;;14.47;9.47;;;;;;;21.72;42.08;100696.59;5061228;28;20377;-69
2022/09/26 08:32:16;;;;;;;12.80;9.05;;;;;;;21.88;41.42;100694.16;5057069;28;20875;-69
2022/09/26 08:34:42;;;;;;;9.77;8.10;;;;;;;21.94;40.71;100693.97;5065922;28;20435;-69
2022/09/26 08:37:08;;;;;;;13.43;8.80;;;;;;;21.87;40.51;100696.03;5057126;28;20378;-69
2022/09/26 08:39:33;;;;;;;13.73;9.20;;;;;;;21.97;40.25;100695.38;5060951;28;20398;-69
2022/09/26 08:42:12;;;;;;;15.07;8.98;;;;;;;22.09;39.97;100693.41;5059577;28;20492;-69
2022/09/26 08:44:52;;;;;;;11.90;8.82;;;;;;;22.19;39.96;100681.94;5060353;28;20377;-69
2022/09/26 08:47:47;;;;;;;11.48;8.93;;;;;;;22.21;39.69;100685.19;5057326;28;20456;-69
2022/09/26 08:50:32;;;;;;;12.00;8.52;;;;;;;22.21;39.96;100706.00;5059227;28;20387;-69
2022/09/26 08:53:09;;;;;;;12.60;8.38;;;;;;;22.13;39.92;100701.84;5072214;28;20407;-69
2022/09/26 08:55:40;;;;;;;14.73;8.88;;;;;;;22.22;39.52;100688.72;5052654;28;20384;-69
2022/09/26 08:58:18;;;;;;;12.30;8.85;;;;;;;22.22;39.91;100692.25;5056664;28;20388;-69
2022/09/26 09:00:46;;;;;;;13.20;8.75;;;;;;;22.19;39.54;100702.72;5052949;28;20380;-69
2022/09/26 09:03:29;;;;;;;12.75;8.40;;;;;;;22.14;39.47;100701.56;5056661;28;20387;-69
2022/09/26 09:06:10;;;;;;;12.77;8.18;;;;;;;22.19;39.37;100686.53;5045133;28;20413;-69
2022/09/26 09:08:56;;;;;;;14.05;7.78;;;;;;;22.23;39.08;100682.25;5045739;28;20885;-69
2022/09/26 09:11:33;;;;;;;11.73;7.40;;;;;;;22.22;39.05;100667.94;5045193;28;20390;-69
2022/09/26 09:14:31;;;;;;;11.23;7.03;;;;;;;22.10;39.61;100664.53;5045449;28;20519;-68
2022/09/26 09:17:20;;;;;;;9.63;6.57;;;;;;;22.23;39.31;100676.84;5027217;28;20909;-68
2022/09/26 09:20:15;;;;;;;11.55;6.53;;;;;;;22.39;38.88;100667.13;5040643;28;20768;-69
2022/09/26 09:23:19;;;;;;;9.63;6.43;;;;;;;22.34;38.63;100667.84;5012566;28;20487;-69
2022/09/26 09:26:14;;;;;;;10.27;6.53;;;;;;;22.35;38.84;100663.28;5045175;28;20409;-69
2022/09/26 09:29:14;;;;;;;8.13;6.53;;;;;;;22.33;39.08;100667.03;5040880;28;20819;-68
2022/09/26 09:31:43;;;;;;;10.80;6.40;;;;;;;22.43;39.03;100660.94;5035389;28;20393;-68
2022/09/26 09:34:18;;;;;;;8.60;6.22;;;;;;;22.63;38.74;100660.38;5051935;28;20531;-69
2022/09/26 09:36:50;;;;;;;11.27;7.27;;;;;;;22.61;39.08;100657.13;5032242;28;20390;-68
2022/09/26 09:39:38;;;;;;;8.38;6.78;;;;;;;22.65;38.88;100650.16;5042536;28;20468;-68
2022/09/26 09:42:22;;;;;;;10.13;7.22;;;;;;;22.62;38.41;100645.25;5044094;28;20394;-68
2022/09/26 09:44:54;;;;;;;11.45;7.18;;;;;;;22.81;38.49;100653.84;5039214;28;20913;-68
2022/09/26 09:47:20;;;;;;;15.00;7.30;;;;;;;23.02;38.36;100656.78;5037202;28;20414;-68
2022/09/26 09:49:48;;;;;;;11.47;7.33;;;;;;;23.08;38.40;100655.78;5037568;28;20388;-68
2022/09/26 09:52:35;;;;;;;10.00;6.82;;;;;;;23.02;37.96;100664.91;5051473;28;20472;-68
2022/09/26 09:55:20;;;;;;;10.07;7.18;;;;;;;23.07;37.40;100667.69;5051476;28;20384;-67
2022/09/26 09:58:01;;;;;;;9.50;6.97;;;;;;;23.16;37.35;100655.34;5051548;28;20381;-68
2022/09/26 10:00:27;;;;;;;10.02;6.30;;;;;;;23.11;37.32;100657.97;5051969;28;20427;-69
2022/09/26 10:03:00;;;;;;;9.73;6.40;;;;;;;23.11;37.41;100665.28;5038695;28;20391;-68
2022/09/26 10:05:40;;;;;;;9.32;6.38;;;;;;;22.93;37.57;100652.91;5036801;28;20447;-68
2022/09/26 10:08:18;;;;;;;10.57;6.75;;;;;;;23.06;37.31;100656.03;5031355;28;20383;-68
2022/09/26 10:11:11;;;;;;;10.55;7.07;;;;;;;23.18;37.01;100644.28;5035968;28;20767;-68
2022/09/26 10:13:41;;;;;;;11.32;7.05;;;;;;;23.18;37.13;100636.97;5036417;28;20399;-68
2022/09/26 10:16:13;;;;;;;10.07;6.60;;;;;;;23.18;36.93;100639.66;5034643;28;20475;-68
2022/09/26 10:19:05;;;;;;;10.57;6.78;;;;;;;23.24;37.28;100645.94;5051171;28;20477;-68
2022/09/26 10:21:38;;;;;;;9.40;7.07;;;;;;;23.29;36.90;100633.28;5031108;28;20877;-68
2022/09/26 10:24:05;;;;;;;9.75;6.82;;;;;;;23.35;37.33;100634.13;5031344;28;20390;-68
2022/09/26 10:26:33;;;;;;;10.05;7.22;;;;;;;23.38;37.07;100632.81;5030407;28;20414;-67
2022/09/26 10:29:33;;;;;;;12.20;7.05;;;;;;;23.35;37.30;100627.91;5030395;28;20386;-67
2022/09/26 10:31:59;;;;;;;9.75;7.30;;;;;;;23.38;36.95;100632.81;5030615;28;20468;-68
2022/09/26 10:34:37;;;;;;;9.48;6.82;;;;;;;23.36;37.08;100619.53;5030813;28;20474;-67
2022/09/26 10:37:24;;;;;;;13.43;7.18;;;;;;;23.38;36.89;100630.13;5030821;28;20406;-68
2022/09/26 10:42:38;;;;;;;10.65;6.82;;;;;;;23.35;36.98;100617.09;5030757;28;20433;-67
2022/09/26 10:45:19;;;;;;;8.67;6.20;;;;;;;23.37;36.68;100625.75;5030462;28;20390;-68
2022/09/26 10:48:20;;;;;;;11.13;6.70;;;;;;;23.37;36.46;100607.66;5032481;28;20469;-67
2022/09/26 10:50:51;;;;;;;11.85;6.55;;;;;;;23.37;36.26;100607.66;5026697;28;20482;-68
2022/09/26 10:53:21;;;;;;;10.88;6.38;;;;;;;23.39;36.54;100594.69;5026673;28;20384;-67
2022/09/26 10:55:56;;;;;;;10.63;6.43;;;;;;;23.36;36.67;100599.81;5026824;28;20390;-68
2022/09/26 10:58:28;;;;;;;10.63;6.10;;;;;;;23.39;36.38;100597.41;5026515;28;20442;-67
2022/09/26 11:00:56;;;;;;;8.20;5.97;;;;;;;23.46;35.98;100599.88;5026502;28;20395;-68
2022/09/26 11:03:45;;;;;;;8.20;5.53;;;;;;;23.48;35.97;100600.44;5026334;28;20418;-67
2022/09/26 11:06:44;;;;;;;8.32;6.13;;;;;;;23.52;36.17;100590.72;5012166;28;20427;-68
2022/09/26 11:09:12;;;;;;;9.93;6.05;;;;;;;23.57;36.09;100598.88;5021593;28;20402;-68
2022/09/26 11:11:38;;;;;;;7.03;5.45;;;;;;;23.55;35.92;100592.94;5026475;28;20778;-68
2022/09/26 11:14:07;;;;;;;7.63;5.25;;;;;;;23.60;35.98;100590.22;5026251;28;20396;-68
2022/09/26 11:16:53;;;;;;;9.10;5.05;;;;;;;23.62;35.58;100588.09;5026198;28;20474;-68
2022/09/26 11:20:50;;;;;;;7.18;5.22;;;;;;;23.68;35.52;100588.94;5078657;27;20912;-67
2022/09/26 11:24:01;;;;;;;8.50;4.80;;;;;;;23.69;35.28;100587.84;5053199;28;20391;-68
2022/09/26 11:26:43;;;;;;;7.57;4.88;;;;;;;23.72;35.07;100587.34;5066874;28;20391;-67
2022/09/26 11:29:32;;;;;;;9.55;5.03;;;;;;;23.74;35.31;100577.06;5066744;28;20430;-67
2022/09/26 11:32:04;;;;;;;8.13;4.57;;;;;;;23.79;35.00;100577.09;5066958;27;20471;-68
2022/09/26 11:34:32;;;;;;;10.02;4.72;;;;;;;23.89;34.99;100570.16;5046658;28;20402;-68
2022/09/26 11:37:29;;;;;;;6.70;4.43;;;;;;;23.97;34.61;100564.25;5046519;28;20388;-68
2022/09/26 11:40:45;;;;;;;7.45;4.70;;;;;;;24.06;34.40;100573.50;5046064;28;20504;-68
2022/09/26 11:43:21;;;;;;;8.07;4.37;;;;;;;24.12;34.37;100548.06;5031035;28;20907;-68
2022/09/26 11:49:50;;;;;;;6.50;4.00;;;;;;;24.15;33.96;100554.84;5066950;27;2068440;-68
2022/09/26 11:52:45;;;;;;;6.50;4.45;;;;;;;24.19;34.35;100559.47;5114723;28;20393;-68
2022/09/26 11:55:23;;;;;;;7.28;4.22;;;;;;;24.23;34.13;100555.13;5127340;28;20375;-68
2022/09/26 11:58:07;;;;;;;7.53;4.63;;;;;;;24.39;34.02;100552.50;5116071;28;20412;-68
2022/09/26 12:00:47;;;;;;;6.37;4.60;;;;;;;24.38;33.88;100543.56;5127098;28;20420;-68
2022/09/26 12:03:36;;;;;;;6.93;5.00;;;;;;;24.48;34.02;100536.53;5127295;28;20404;-68
2022/09/26 12:06:11;;;;;;;11.50;4.70;;;;;;;24.51;34.13;100534.09;5111943;28;20439;-68
2022/09/26 12:13:41;;;;;;;7.47;4.82;;;;;;;24.60;34.06;100548.78;5077224;27;20433;-69
2022/09/26 12:16:57;;;;;;;10.10;4.40;;;;;;;24.59;33.97;100551.75;5050413;28;20426;-68
2022/09/26 12:19:50;;;;;;;6.22;4.05;;;;;;;24.61;33.66;100560.44;5026696;28;20494;-67
2022/09/26 12:22:27;;;;;;;9.40;4.40;;;;;;;24.58;34.01;100559.09;5026936;28;20387;-68
2022/09/26 12:25:15;;;;;;;8.82;4.57;;;;;;;24.60;34.21;100566.94;5013108;28;20445;-67
2022/09/26 12:28:07;;;;;;;7.93;4.20;;;;;;;24.62;34.12;100583.75;5026566;28;20519;-67
2022/09/26 12:30:53;;;;;;;7.00;4.70;;;;;;;24.56;34.44;100579.38;5022688;28;20398;-67
2022/09/26 12:33:21;;;;;;;6.28;4.50;;;;;;;24.49;34.86;100576.09;5026100;28;20901;-67
2022/09/26 12:36:04;;;;;;;5.85;4.30;;;;;;;24.34;35.43;100571.44;5026260;28;20415;-68
2022/09/26 12:39:07;;;;;;;6.32;4.30;;;;;;;24.35;35.56;100562.25;5026297;28;20923;-67
2022/09/26 12:41:52;;;;;;;9.10;4.45;;;;;;;24.30;35.26;100557.59;5026282;28;20402;-68
2022/09/26 12:44:35;;;;;;;6.38;4.25;;;;;;;24.30;35.47;100559.50;5026013;28;20754;-67
2022/09/26 12:47:39;;;;;;;8.50;4.20;;;;;;;24.17;36.06;100558.09;5026456;28;20481;-67
2022/09/26 12:50:07;;;;;;;6.97;4.63;;;;;;;24.05;36.25;100544.78;5026098;28;20409;-68